Terminal Aerodrome Forecast
Issued by NWS

Home | Current Version | Previous Version | Text Only | Print | Product List | Glossary On
Versions: 1 2 3 4 5 6 7 8 9 10 11 12 13 14 15 16 17 18
000
FTUS43 KGRR 301140
TAFJXN
TAF
KJXN 301140Z 3012/3112 23005KT P6SM SKC
     FM301300 23007KT 4SM -RA OVC050
      TEMPO 3013/3015 2SM -TSRA BR OVC025CB
     FM301500 VRB05KT 4SM -RA BR OVC015
     FM301600 33006KT 6SM -RA BR OVC025
     FM301700 33005KT 4SM -RA BR OVC015
     FM301800 01010KT 2SM RA BR OVC007
     FM310000 03012G26KT 1SM RA BR OVC004
     FM310800 03018G28KT 4SM -RA BR OVC007=

USA.gov is the U.S. government's official web portal to all federal, state and local government web resources and services.